sensor_id;sensor_type;location;lat;lon;timestamp;pressure;altitude;pressure_sealevel;temperature;humidity
76337;BME280;65157;50.082;18.178;2024-02-21T00:00:38;100008.41;;;4.58;82.33
76337;BME280;65157;50.082;18.178;2024-02-21T00:03:24;100003.86;;;4.59;82.27
76337;BME280;65157;50.082;18.178;2024-02-21T00:05:50;99991.14;;;4.54;82.08
76337;BME280;65157;50.082;18.178;2024-02-21T00:08:16;100002.98;;;4.61;82.11
76337;BME280;65157;50.082;18.178;2024-02-21T00:10:42;100001.75;;;4.62;82.16
76337;BME280;65157;50.082;18.178;2024-02-21T00:13:08;100001.40;;;4.63;82.26
76337;BME280;65157;50.082;18.178;2024-02-21T00:15:34;100003.15;;;4.62;82.33
76337;BME280;65157;50.082;18.178;2024-02-21T00:18:00;99999.65;;;4.62;82.45
76337;BME280;65157;50.082;18.178;2024-02-21T00:20:25;100001.77;;;4.61;82.74
76337;BME280;65157;50.082;18.178;2024-02-21T00:22:51;100000.71;;;4.60;83.00
76337;BME280;65157;50.082;18.178;2024-02-21T00:25:19;100002.63;;;4.60;82.99
76337;BME280;65157;50.082;18.178;2024-02-21T00:27:45;99992.70;;;4.56;83.18
76337;BME280;65157;50.082;18.178;2024-02-21T00:30:11;99994.27;;;4.56;83.24
76337;BME280;65157;50.082;18.178;2024-02-21T00:32:38;99993.92;;;4.57;83.42
76337;BME280;65157;50.082;18.178;2024-02-21T00:35:04;99993.75;;;4.57;83.57
76337;BME280;65157;50.082;18.178;2024-02-21T00:37:31;99987.79;;;4.58;83.54
76337;BME280;65157;50.082;18.178;2024-02-21T00:39:57;99982.88;;;4.60;83.39
76337;BME280;65157;50.082;18.178;2024-02-21T00:42:23;99979.39;;;4.61;83.53
76337;BME280;65157;50.082;18.178;2024-02-21T00:44:48;99977.10;;;4.63;83.39
76337;BME280;65157;50.082;18.178;2024-02-21T00:47:14;99973.58;;;4.65;83.29
76337;BME280;65157;50.082;18.178;2024-02-21T00:49:40;99972.35;;;4.67;83.31
76337;BME280;65157;50.082;18.178;2024-02-21T00:52:06;99972.86;;;4.69;83.44
76337;BME280;65157;50.082;18.178;2024-02-21T00:54:32;99968.99;;;4.71;83.49
76337;BME280;65157;50.082;18.178;2024-02-21T00:56:59;99964.27;;;4.71;83.52
76337;BME280;65157;50.082;18.178;2024-02-21T00:59:25;99958.85;;;4.72;83.12
76337;BME280;65157;50.082;18.178;2024-02-21T01:01:50;99961.30;;;4.73;82.68
76337;BME280;65157;50.082;18.178;2024-02-21T01:04:16;99964.09;;;4.73;82.69
76337;BME280;65157;50.082;18.178;2024-02-21T01:06:42;99960.94;;;4.73;82.77
76337;BME280;65157;50.082;18.178;2024-02-21T01:09:08;99964.77;;;4.74;82.70
76337;BME280;65157;50.082;18.178;2024-02-21T01:11:34;99959.70;;;4.74;82.81
76337;BME280;65157;50.082;18.178;2024-02-21T01:14:00;99955.00;;;4.72;82.91
76337;BME280;65157;50.082;18.178;2024-02-21T01:16:26;99957.95;;;4.75;82.77
76337;BME280;65157;50.082;18.178;2024-02-21T01:18:52;99959.18;;;4.75;82.75
76337;BME280;65157;50.082;18.178;2024-02-21T01:21:18;99945.37;;;4.75;82.79
76337;BME280;65157;50.082;18.178;2024-02-21T01:23:44;99945.02;;;4.75;82.85
76337;BME280;65157;50.082;18.178;2024-02-21T01:26:10;99950.09;;;4.75;82.84
76337;BME280;65157;50.082;18.178;2024-02-21T01:28:36;99947.12;;;4.75;83.01
76337;BME280;65157;50.082;18.178;2024-02-21T01:31:02;99945.89;;;4.75;83.11
76337;BME280;65157;50.082;18.178;2024-02-21T01:33:28;99943.43;;;4.76;83.15
76337;BME280;65157;50.082;18.178;2024-02-21T01:35:54;99937.49;;;4.75;83.28
76337;BME280;65157;50.082;18.178;2024-02-21T01:38:20;99936.10;;;4.75;83.22
76337;BME280;65157;50.082;18.178;2024-02-21T01:40:45;99937.67;;;4.75;83.03
76337;BME280;65157;50.082;18.178;2024-02-21T01:43:16;99930.50;;;4.75;83.06
76337;BME280;65157;50.082;18.178;2024-02-21T01:45:43;99931.02;;;4.75;83.01
76337;BME280;65157;50.082;18.178;2024-02-21T01:48:09;99923.86;;;4.74;82.93
76337;BME280;65157;50.082;18.178;2024-02-21T01:50:35;99918.96;;;4.74;82.86
76337;BME280;65157;50.082;18.178;2024-02-21T01:53:01;99918.27;;;4.75;82.71
76337;BME280;65157;50.082;18.178;2024-02-21T01:55:27;99916.33;;;4.76;82.74
76337;BME280;65157;50.082;18.178;2024-02-21T01:57:53;99915.27;;;4.77;82.75
76337;BME280;65157;50.082;18.178;2024-02-21T02:00:19;99914.92;;;4.77;82.68
76337;BME280;65157;50.082;18.178;2024-02-21T02:02:46;99911.77;;;4.77;82.90
76337;BME280;65157;50.082;18.178;2024-02-21T02:05:12;99913.70;;;4.77;82.86
76337;BME280;65157;50.082;18.178;2024-02-21T02:07:38;99913.17;;;4.77;82.69
76337;BME280;65157;50.082;18.178;2024-02-21T02:10:05;99917.20;;;4.78;83.09
76337;BME280;65157;50.082;18.178;2024-02-21T02:12:31;99919.83;;;4.77;82.87
76337;BME280;65157;50.082;18.178;2024-02-21T02:14:58;99918.95;;;4.77;83.18
76337;BME280;65157;50.082;18.178;2024-02-21T02:17:24;99919.30;;;4.77;83.29
76337;BME280;65157;50.082;18.178;2024-02-21T02:19:50;99920.52;;;4.78;83.69
76337;BME280;65157;50.082;18.178;2024-02-21T02:22:22;99925.07;;;4.79;84.09
76337;BME280;65157;50.082;18.178;2024-02-21T02:24:48;99924.70;;;4.80;84.22
76337;BME280;65157;50.082;18.178;2024-02-21T02:27:15;99919.61;;;4.80;84.27
76337;BME280;65157;50.082;18.178;2024-02-21T02:29:41;99910.86;;;4.80;84.30
76337;BME280;65157;50.082;18.178;2024-02-21T02:32:07;99901.77;;;4.81;84.41
76337;BME280;65157;50.082;18.178;2024-02-21T02:34:33;99894.98;;;4.77;84.23
76337;BME280;65157;50.082;18.178;2024-02-21T02:36:58;99889.02;;;4.79;84.07
76337;BME280;65157;50.082;18.178;2024-02-21T02:39:24;99878.37;;;4.79;84.06
76337;BME280;65157;50.082;18.178;2024-02-21T02:41:50;99875.23;;;4.77;84.05
76337;BME280;65157;50.082;18.178;2024-02-21T02:44:16;99876.80;;;4.76;84.16
76337;BME280;65157;50.082;18.178;2024-02-21T02:46:42;99877.69;;;4.75;84.14
76337;BME280;65157;50.082;18.178;2024-02-21T02:49:08;99881.73;;;4.74;84.31
76337;BME280;65157;50.082;18.178;2024-02-21T02:51:34;99878.95;;;4.70;84.53
76337;BME280;65157;50.082;18.178;2024-02-21T02:54:00;99880.39;;;4.68;84.66
76337;BME280;65157;50.082;18.178;2024-02-21T02:56:26;99879.17;;;4.65;84.62
76337;BME280;65157;50.082;18.178;2024-02-21T02:58:52;99874.31;;;4.62;84.61
76337;BME280;65157;50.082;18.178;2024-02-21T03:01:18;99875.00;;;4.63;84.61
76337;BME280;65157;50.082;18.178;2024-02-21T03:03:44;99872.90;;;4.63;84.71
76337;BME280;65157;50.082;18.178;2024-02-21T03:06:10;99870.64;;;4.61;84.82
76337;BME280;65157;50.082;18.178;2024-02-21T03:08:36;99870.11;;;4.61;84.94
76337;BME280;65157;50.082;18.178;2024-02-21T03:11:03;99870.48;;;4.60;85.15
76337;BME280;65157;50.082;18.178;2024-02-21T03:13:29;99873.09;;;4.60;85.34
76337;BME280;65157;50.082;18.178;2024-02-21T03:15:54;99866.48;;;4.56;85.89
76337;BME280;65157;50.082;18.178;2024-02-21T03:18:20;99869.48;;;4.52;86.03
76337;BME280;65157;50.082;18.178;2024-02-21T03:20:49;99871.09;;;4.49;86.23
76337;BME280;65157;50.082;18.178;2024-02-21T03:23:15;99869.53;;;4.46;86.16
76337;BME280;65157;50.082;18.178;2024-02-21T03:25:41;99863.60;;;4.45;86.25
76337;BME280;65157;50.082;18.178;2024-02-21T03:28:07;99866.02;;;4.47;86.28
76337;BME280;65157;50.082;18.178;2024-02-21T03:30:33;99869.35;;;4.48;86.39
76337;BME280;65157;50.082;18.178;2024-02-21T03:32:59;99868.13;;;4.48;86.44
76337;BME280;65157;50.082;18.178;2024-02-21T03:35:25;99867.58;;;4.50;86.33
76337;BME280;65157;50.082;18.178;2024-02-21T03:37:50;99867.92;;;4.51;86.36
76337;BME280;65157;50.082;18.178;2024-02-21T03:40:16;99865.82;;;4.51;86.38
76337;BME280;65157;50.082;18.178;2024-02-21T03:42:42;99865.48;;;4.49;86.34
76337;BME280;65157;50.082;18.178;2024-02-21T03:45:08;99865.99;;;4.51;86.43
76337;BME280;65157;50.082;18.178;2024-02-21T03:47:34;99864.95;;;4.51;86.55
76337;BME280;65157;50.082;18.178;2024-02-21T03:50:01;99863.55;;;4.52;86.48
76337;BME280;65157;50.082;18.178;2024-02-21T03:52:26;99868.95;;;4.53;86.43
76337;BME280;65157;50.082;18.178;2024-02-21T03:54:52;99865.27;;;4.54;86.43
76337;BME280;65157;50.082;18.178;2024-02-21T03:57:19;99866.16;;;4.53;86.76
76337;BME280;65157;50.082;18.178;2024-02-21T03:59:44;99863.73;;;4.51;86.98
76337;BME280;65157;50.082;18.178;2024-02-21T04:02:10;99866.70;;;4.49;87.17
76337;BME280;65157;50.082;18.178;2024-02-21T04:04:36;99868.48;;;4.48;87.34
76337;BME280;65157;50.082;18.178;2024-02-21T04:07:03;99867.95;;;4.47;87.28
76337;BME280;65157;50.082;18.178;2024-02-21T04:09:33;99866.55;;;4.48;87.34
76337;BME280;65157;50.082;18.178;2024-02-21T04:12:00;99866.73;;;4.48;87.32
76337;BME280;65157;50.082;18.178;2024-02-21T04:14:26;99863.05;;;4.48;87.27
76337;BME280;65157;50.082;18.178;2024-02-21T04:16:52;99863.73;;;4.49;87.27
76337;BME280;65157;50.082;18.178;2024-02-21T04:19:18;99864.95;;;4.50;87.25
76337;BME280;65157;50.082;18.178;2024-02-21T04:21:44;99863.20;;;4.50;87.30
76337;BME280;65157;50.082;18.178;2024-02-21T04:24:10;99858.15;;;4.49;87.24
76337;BME280;65157;50.082;18.178;2024-02-21T04:26:36;99859.89;;;4.51;87.19
76337;BME280;65157;50.082;18.178;2024-02-21T04:29:02;99855.17;;;4.52;87.28
76337;BME280;65157;50.082;18.178;2024-02-21T04:31:28;99850.45;;;4.52;87.33
76337;BME280;65157;50.082;18.178;2024-02-21T04:33:54;99848.88;;;4.52;87.16
76337;BME280;65157;50.082;18.178;2024-02-21T04:36:20;99847.65;;;4.52;87.31
76337;BME280;65157;50.082;18.178;2024-02-21T04:38:45;99846.77;;;4.52;87.25
76337;BME280;65157;50.082;18.178;2024-02-21T04:41:11;99843.63;;;4.52;87.29
76337;BME280;65157;50.082;18.178;2024-02-21T04:43:37;99839.27;;;4.51;87.39
76337;BME280;65157;50.082;18.178;2024-02-21T04:46:04;99837.86;;;4.52;87.44
76337;BME280;65157;50.082;18.178;2024-02-21T04:48:30;99835.75;;;4.52;87.56
76337;BME280;65157;50.082;18.178;2024-02-21T04:50:56;99835.94;;;4.52;87.63
76337;BME280;65157;50.082;18.178;2024-02-21T04:53:22;99835.41;;;4.51;87.62
76337;BME280;65157;50.082;18.178;2024-02-21T04:55:48;99833.67;;;4.49;87.60
76337;BME280;65157;50.082;18.178;2024-02-21T04:58:14;99834.04;;;4.49;87.78
76337;BME280;65157;50.082;18.178;2024-02-21T05:00:40;99830.02;;;4.48;87.90
76337;BME280;65157;50.082;18.178;2024-02-21T05:03:06;99830.02;;;4.48;87.91
76337;BME280;65157;50.082;18.178;2024-02-21T05:05:32;99827.92;;;4.47;88.05
76337;BME280;65157;50.082;18.178;2024-02-21T05:07:57;99827.22;;;4.47;88.13
76337;BME280;65157;50.082;18.178;2024-02-21T05:10:23;99824.44;;;4.47;88.15
76337;BME280;65157;50.082;18.178;2024-02-21T05:12:49;99824.61;;;4.47;88.25
76337;BME280;65157;50.082;18.178;2024-02-21T05:15:15;99820.25;;;4.45;88.40
76337;BME280;65157;50.082;18.178;2024-02-21T05:17:41;99819.19;;;4.46;88.38
76337;BME280;65157;50.082;18.178;2024-02-21T05:20:07;99815.52;;;4.45;88.37
76337;BME280;65157;50.082;18.178;2024-02-21T05:22:33;99821.98;;;4.47;88.59
76337;BME280;65157;50.082;18.178;2024-02-21T05:24:59;99821.27;;;4.48;88.52
76337;BME280;65157;50.082;18.178;2024-02-21T05:27:26;99815.69;;;4.48;88.54
76337;BME280;65157;50.082;18.178;2024-02-21T05:29:53;99810.27;;;4.48;88.58
76337;BME280;65157;50.082;18.178;2024-02-21T05:32:19;99805.73;;;4.48;88.61
76337;BME280;65157;50.082;18.178;2024-02-21T05:34:48;99800.33;;;4.45;88.58
76337;BME280;65157;50.082;18.178;2024-02-21T05:37:14;99802.23;;;4.47;88.58
76337;BME280;65157;50.082;18.178;2024-02-21T05:39:40;99797.38;;;4.44;88.68
76337;BME280;65157;50.082;18.178;2024-02-21T05:42:06;99797.52;;;4.45;88.54
76337;BME280;65157;50.082;18.178;2024-02-21T05:44:33;99802.92;;;4.47;88.55
76337;BME280;65157;50.082;18.178;2024-02-21T05:46:58;99806.06;;;4.48;88.54
76337;BME280;65157;50.082;18.178;2024-02-21T05:49:24;99807.30;;;4.49;88.54
76337;BME280;65157;50.082;18.178;2024-02-21T05:51:51;99803.99;;;4.47;88.86
76337;BME280;65157;50.082;18.178;2024-02-21T05:54:17;99806.27;;;4.46;88.96
76337;BME280;65157;50.082;18.178;2024-02-21T05:56:46;99805.58;;;4.44;89.02
76337;BME280;65157;50.082;18.178;2024-02-21T05:59:11;99808.21;;;4.44;88.94
76337;BME280;65157;50.082;18.178;2024-02-21T06:01:37;99806.65;;;4.43;89.13
76337;BME280;65157;50.082;18.178;2024-02-21T06:04:03;99803.33;;;4.42;89.09
76337;BME280;65157;50.082;18.178;2024-02-21T06:06:29;99805.77;;;4.43;88.91
76337;BME280;65157;50.082;18.178;2024-02-21T06:08:55;99802.79;;;4.44;88.90
76337;BME280;65157;50.082;18.178;2024-02-21T06:11:21;99804.52;;;4.45;88.82
76337;BME280;65157;50.082;18.178;2024-02-21T06:13:47;99801.56;;;4.44;88.77
76337;BME280;65157;50.082;18.178;2024-02-21T06:16:13;99805.55;;;4.47;88.68
76337;BME280;65157;50.082;18.178;2024-02-21T06:18:39;99801.89;;;4.46;88.80
76337;BME280;65157;50.082;18.178;2024-02-21T06:21:05;99800.66;;;4.46;88.81
76337;BME280;65157;50.082;18.178;2024-02-21T06:23:31;99802.40;;;4.49;88.92
76337;BME280;65157;50.082;18.178;2024-02-21T06:25:57;99795.59;;;4.48;88.94
76337;BME280;65157;50.082;18.178;2024-02-21T06:28:23;99793.15;;;4.48;88.96
76337;BME280;65157;50.082;18.178;2024-02-21T06:30:49;99795.05;;;4.49;88.98
76337;BME280;65157;50.082;18.178;2024-02-21T06:33:14;99797.50;;;4.49;89.04
76337;BME280;65157;50.082;18.178;2024-02-21T06:35:40;99796.45;;;4.50;89.11
76337;BME280;65157;50.082;18.178;2024-02-21T06:38:06;99793.12;;;4.50;89.06
76337;BME280;65157;50.082;18.178;2024-02-21T06:40:32;99797.83;;;4.50;89.09
76337;BME280;65157;50.082;18.178;2024-02-21T06:42:58;99799.41;;;4.50;89.12
76337;BME280;65157;50.082;18.178;2024-02-21T06:45:24;99800.63;;;4.51;89.08
76337;BME280;65157;50.082;18.178;2024-02-21T06:47:50;99803.08;;;4.50;89.10
76337;BME280;65157;50.082;18.178;2024-02-21T06:50:17;99799.94;;;4.49;89.07
76337;BME280;65157;50.082;18.178;2024-02-21T06:52:43;99801.52;;;4.50;89.02
76337;BME280;65157;50.082;18.178;2024-02-21T06:55:09;99799.58;;;4.51;88.96
76337;BME280;65157;50.082;18.178;2024-02-21T06:57:35;99801.85;;;4.51;88.74
76337;BME280;65157;50.082;18.178;2024-02-21T07:00:02;99802.38;;;4.52;88.75
76337;BME280;65157;50.082;18.178;2024-02-21T07:02:30;99799.39;;;4.53;88.81
76337;BME280;65157;50.082;18.178;2024-02-21T07:04:56;99798.14;;;4.55;88.79
76337;BME280;65157;50.082;18.178;2024-02-21T07:07:22;99793.92;;;4.59;88.78
76337;BME280;65157;50.082;18.178;2024-02-21T07:09:47;99791.42;;;4.64;88.81
76337;BME280;65157;50.082;18.178;2024-02-21T07:12:14;99781.04;;;4.70;88.86
76337;BME280;65157;50.082;18.178;2024-02-21T07:14:45;99780.73;;;4.83;88.92
76337;BME280;65157;50.082;18.178;2024-02-21T07:17:10;99777.34;;;4.89;88.95
76337;BME280;65157;50.082;18.178;2024-02-21T07:19:36;99784.72;;;5.02;89.00
76337;BME280;65157;50.082;18.178;2024-02-21T07:22:02;99787.51;;;5.18;89.08
76337;BME280;65157;50.082;18.178;2024-02-21T07:24:28;99781.73;;;5.33;88.74
76337;BME280;65157;50.082;18.178;2024-02-21T07:26:54;99774.73;;;5.45;88.51
76337;BME280;65157;50.082;18.178;2024-02-21T07:29:20;99772.50;;;5.55;88.28
76337;BME280;65157;50.082;18.178;2024-02-21T07:31:46;99767.44;;;5.67;88.30
76337;BME280;65157;50.082;18.178;2024-02-21T07:34:12;99770.09;;;5.78;87.99
76337;BME280;65157;50.082;18.178;2024-02-21T07:36:38;99770.17;;;5.85;87.47
76337;BME280;65157;50.082;18.178;2024-02-21T07:39:04;99773.39;;;5.93;87.21
76337;BME280;65157;50.082;18.178;2024-02-21T07:41:30;99773.61;;;6.01;87.29
76337;BME280;65157;50.082;18.178;2024-02-21T07:47:00;99765.08;;;6.19;86.05
76337;BME280;65157;50.082;18.178;2024-02-21T07:49:26;99761.63;;;6.27;85.73
76337;BME280;65157;50.082;18.178;2024-02-21T07:51:52;99750.98;;;6.36;85.72
76337;BME280;65157;50.082;18.178;2024-02-21T07:54:18;99743.27;;;6.45;84.82
76337;BME280;65157;50.082;18.178;2024-02-21T07:56:44;99736.64;;;6.52;84.46
76337;BME280;65157;50.082;18.178;2024-02-21T07:59:10;99732.08;;;6.62;84.42
76337;BME280;65157;50.082;18.178;2024-02-21T08:01:37;99725.06;;;6.72;84.00
76337;BME280;65157;50.082;18.178;2024-02-21T08:04:05;99723.64;;;6.81;83.51
76337;BME280;65157;50.082;18.178;2024-02-21T08:06:30;99722.60;;;6.90;83.36
76337;BME280;65157;50.082;18.178;2024-02-21T08:08:58;99721.54;;;6.99;83.20
76337;BME280;65157;50.082;18.178;2024-02-21T08:11:23;99716.64;;;7.07;82.81
76337;BME280;65157;50.082;18.178;2024-02-21T08:13:49;99714.18;;;7.15;83.28
76337;BME280;65157;50.082;18.178;2024-02-21T08:16:15;99716.15;;;7.22;82.74
76337;BME280;65157;50.082;18.178;2024-02-21T08:18:44;99718.80;;;7.29;82.52
76337;BME280;65157;50.082;18.178;2024-02-21T08:21:10;99722.02;;;7.34;82.98
76337;BME280;65157;50.082;18.178;2024-02-21T08:23:36;99715.05;;;7.40;81.86
76337;BME280;65157;50.082;18.178;2024-02-21T08:26:05;99713.43;;;7.42;80.49
76337;BME280;65157;50.082;18.178;2024-02-21T08:28:31;99712.87;;;7.43;80.55
76337;BME280;65157;50.082;18.178;2024-02-21T08:30:57;99709.09;;;7.48;80.25
76337;BME280;65157;50.082;18.178;2024-02-21T08:33:23;99704.80;;;7.50;80.59
76337;BME280;65157;50.082;18.178;2024-02-21T08:35:49;99701.21;;;7.54;79.92
76337;BME280;65157;50.082;18.178;2024-02-21T08:38:15;99702.98;;;7.61;80.08
76337;BME280;65157;50.082;18.178;2024-02-21T08:40:41;99702.25;;;7.70;79.54
76337;BME280;65157;50.082;18.178;2024-02-21T08:43:08;99697.38;;;7.75;78.32
76337;BME280;65157;50.082;18.178;2024-02-21T08:45:34;99694.14;;;7.78;78.36
76337;BME280;65157;50.082;18.178;2024-02-21T08:48:00;99687.94;;;7.88;76.90
76337;BME280;65157;50.082;18.178;2024-02-21T08:50:26;99688.09;;;8.03;76.64
76337;BME280;65157;50.082;18.178;2024-02-21T08:52:53;99685.84;;;8.16;75.35
76337;BME280;65157;50.082;18.178;2024-02-21T08:55:19;99681.59;;;8.23;75.40
76337;BME280;65157;50.082;18.178;2024-02-21T08:57:45;99682.52;;;8.36;74.87
76337;BME280;65157;50.082;18.178;2024-02-21T09:00:12;99679.42;;;8.40;73.65
76337;BME280;65157;50.082;18.178;2024-02-21T09:02:41;99680.66;;;8.46;75.14
76337;BME280;65157;50.082;18.178;2024-02-21T09:05:07;99684.58;;;8.51;74.42
76337;BME280;65157;50.082;18.178;2024-02-21T09:07:33;99689.65;;;8.52;74.53
76337;BME280;65157;50.082;18.178;2024-02-21T09:09:59;99686.16;;;8.65;74.88
76337;BME280;65157;50.082;18.178;2024-02-21T09:12:25;99684.34;;;8.85;75.33
76337;BME280;65157;50.082;18.178;2024-02-21T09:14:51;99680.05;;;9.12;75.28
76337;BME280;65157;50.082;18.178;2024-02-21T09:17:17;99677.30;;;9.45;75.36
76337;BME280;65157;50.082;18.178;2024-02-21T09:19:44;99676.74;;;9.73;73.60
76337;BME280;65157;50.082;18.178;2024-02-21T09:22:09;99677.27;;;9.85;72.03
76337;BME280;65157;50.082;18.178;2024-02-21T09:24:36;99671.13;;;9.83;70.80
76337;BME280;65157;50.082;18.178;2024-02-21T09:27:02;99681.83;;;9.74;69.93
76337;BME280;65157;50.082;18.178;2024-02-21T09:29:28;99675.37;;;9.60;68.87
76337;BME280;65157;50.082;18.178;2024-02-21T09:31:54;99674.48;;;9.50;70.25
76337;BME280;65157;50.082;18.178;2024-02-21T09:34:20;99669.30;;;9.47;70.36
76337;BME280;65157;50.082;18.178;2024-02-21T09:36:46;99670.08;;;9.44;71.08
76337;BME280;65157;50.082;18.178;2024-02-21T09:39:12;99671.05;;;9.42;70.11
76337;BME280;65157;50.082;18.178;2024-02-21T09:41:42;99669.02;;;9.39;71.13
76337;BME280;65157;50.082;18.178;2024-02-21T09:44:13;99663.38;;;9.39;71.24
76337;BME280;65157;50.082;18.178;2024-02-21T09:47:02;99666.66;;;9.41;71.78
76337;BME280;65157;50.082;18.178;2024-02-21T09:49:33;99672.17;;;9.44;71.48
76337;BME280;65157;50.082;18.178;2024-02-21T09:52:03;99675.52;;;9.45;71.55
76337;BME280;65157;50.082;18.178;2024-02-21T09:54:30;99676.64;;;9.48;71.97
76337;BME280;65157;50.082;18.178;2024-02-21T09:56:56;99677.23;;;9.52;71.13
76337;BME280;65157;50.082;18.178;2024-02-21T09:59:22;99683.01;;;9.53;71.32
76337;BME280;65157;50.082;18.178;2024-02-21T10:01:49;99688.29;;;9.53;71.19
76337;BME280;65157;50.082;18.178;2024-02-21T10:04:15;99686.08;;;9.51;69.80
76337;BME280;65157;50.082;18.178;2024-02-21T10:06:41;99688.02;;;9.45;69.21
76337;BME280;65157;50.082;18.178;2024-02-21T10:09:07;99685.16;;;9.40;69.60
76337;BME280;65157;50.082;18.178;2024-02-21T10:11:33;99684.77;;;9.36;69.71
76337;BME280;65157;50.082;18.178;2024-02-21T10:14:06;99682.73;;;9.34;69.41
76337;BME280;65157;50.082;18.178;2024-02-21T10:16:32;99681.39;;;9.32;69.63
76337;BME280;65157;50.082;18.178;2024-02-21T10:18:59;99682.94;;;9.32;70.21
76337;BME280;65157;50.082;18.178;2024-02-21T10:21:25;99677.55;;;9.31;69.47
76337;BME280;65157;50.082;18.178;2024-02-21T10:23:51;99675.74;;;9.26;68.89
76337;BME280;65157;50.082;18.178;2024-02-21T10:26:19;99674.81;;;9.22;69.23
76337;BME280;65157;50.082;18.178;2024-02-21T10:28:46;99675.38;;;9.21;69.34
76337;BME280;65157;50.082;18.178;2024-02-21T10:31:22;99678.43;;;9.18;69.43
76337;BME280;65157;50.082;18.178;2024-02-21T10:33:59;99672.59;;;9.20;70.36
76337;BME280;65157;50.082;18.178;2024-02-21T10:36:25;99676.69;;;9.24;70.27
76337;BME280;65157;50.082;18.178;2024-02-21T10:38:52;99673.91;;;9.23;68.86
76337;BME280;65157;50.082;18.178;2024-02-21T10:41:20;99671.59;;;9.18;68.56
76337;BME280;65157;50.082;18.178;2024-02-21T10:43:50;99669.88;;;9.16;69.42
76337;BME280;65157;50.082;18.178;2024-02-21T10:46:19;99666.63;;;9.19;69.91
76337;BME280;65157;50.082;18.178;2024-02-21T10:48:46;99671.80;;;9.17;69.58
76337;BME280;65157;50.082;18.178;2024-02-21T10:51:19;99667.26;;;9.15;70.14
76337;BME280;65157;50.082;18.178;2024-02-21T10:53:50;99665.02;;;9.14;69.86
76337;BME280;65157;50.082;18.178;2024-02-21T10:56:30;99658.53;;;9.14;70.13
76337;BME280;65157;50.082;18.178;2024-02-21T10:59:00;99650.46;;;9.12;68.83
76337;BME280;65157;50.082;18.178;2024-02-21T11:01:26;99646.00;;;9.08;69.16
76337;BME280;65157;50.082;18.178;2024-02-21T11:03:54;99642.02;;;9.05;69.66
76337;BME280;65157;50.082;18.178;2024-02-21T11:06:21;99643.33;;;9.03;69.42
76337;BME280;65157;50.082;18.178;2024-02-21T11:09:08;99637.36;;;8.96;69.07
76337;BME280;65157;50.082;18.178;2024-02-21T11:11:41;99633.71;;;8.95;69.84
76337;BME280;65157;50.082;18.178;2024-02-21T11:14:18;99630.05;;;8.93;69.70
76337;BME280;65157;50.082;18.178;2024-02-21T11:16:44;99626.95;;;8.91;70.06
76337;BME280;65157;50.082;18.178;2024-02-21T11:19:25;99625.23;;;8.90;70.49
76337;BME280;65157;50.082;18.178;2024-02-21T11:21:52;99623.50;;;8.89;70.57
76337;BME280;65157;50.082;18.178;2024-02-21T11:24:44;99617.38;;;8.87;71.02
76337;BME280;65157;50.082;18.178;2024-02-21T11:27:19;99624.60;;;8.88;71.14
76337;BME280;65157;50.082;18.178;2024-02-21T11:29:47;99621.48;;;8.86;71.03
76337;BME280;65157;50.082;18.178;2024-02-21T11:32:17;99614.70;;;8.83;71.23
76337;BME280;65157;50.082;18.178;2024-02-21T11:37:25;99604.95;;;8.85;70.95
76337;BME280;65157;50.082;18.178;2024-02-21T11:39:51;99596.04;;;8.83;70.81
76337;BME280;65157;50.082;18.178;2024-02-21T11:42:17;99589.45;;;8.79;70.37
76337;BME280;65157;50.082;18.178;2024-02-21T11:44:43;99586.61;;;8.75;70.19
76337;BME280;65157;50.082;18.178;2024-02-21T11:47:09;99591.09;;;8.72;70.54
76337;BME280;65157;50.082;18.178;2024-02-21T11:49:37;99588.66;;;8.70;70.24
76337;BME280;65157;50.082;18.178;2024-02-21T11:52:03;99586.52;;;8.66;70.52
76337;BME280;65157;50.082;18.178;2024-02-21T11:54:31;99587.41;;;8.65;71.14
76337;BME280;65157;50.082;18.178;2024-02-21T11:56:57;99586.31;;;8.67;71.15
76337;BME280;65157;50.082;18.178;2024-02-21T11:59:23;99589.64;;;8.68;71.31
76337;BME280;65157;50.082;18.178;2024-02-21T12:01:49;99587.67;;;8.68;71.65
76337;BME280;65157;50.082;18.178;2024-02-21T12:04:15;99584.14;;;8.69;71.53
76337;BME280;65157;50.082;18.178;2024-02-21T12:06:42;99585.09;;;8.66;71.20
76337;BME280;65157;50.082;18.178;2024-02-21T12:09:08;99582.64;;;8.66;71.54
76337;BME280;65157;50.082;18.178;2024-02-21T12:11:34;99573.84;;;8.66;71.46
76337;BME280;65157;50.082;18.178;2024-02-21T12:14:03;99569.45;;;8.66;71.19
76337;BME280;65157;50.082;18.178;2024-02-21T12:16:30;99563.67;;;8.65;70.81
76337;BME280;65157;50.082;18.178;2024-02-21T12:18:57;99551.42;;;8.63;70.75
76337;BME280;65157;50.082;18.178;2024-02-21T12:21:25;99542.20;;;8.60;70.82
76337;BME280;65157;50.082;18.178;2024-02-21T12:23:51;99539.62;;;8.58;70.46
76337;BME280;65157;50.082;18.178;2024-02-21T12:26:17;99540.68;;;8.51;69.88
76337;BME280;65157;50.082;18.178;2024-02-21T12:28:43;99539.50;;;8.49;70.48
76337;BME280;65157;50.082;18.178;2024-02-21T12:31:09;99542.94;;;8.52;71.02
76337;BME280;65157;50.082;18.178;2024-02-21T12:33:35;99546.88;;;8.56;71.54
76337;BME280;65157;50.082;18.178;2024-02-21T12:36:01;99547.82;;;8.60;71.18
76337;BME280;65157;50.082;18.178;2024-02-21T12:38:27;99550.08;;;8.61;70.61
76337;BME280;65157;50.082;18.178;2024-02-21T12:40:53;99546.73;;;8.60;70.43
76337;BME280;65157;50.082;18.178;2024-02-21T12:43:19;99542.02;;;8.59;70.20
76337;BME280;65157;50.082;18.178;2024-02-21T12:45:44;99535.39;;;8.58;70.34
76337;BME280;65157;50.082;18.178;2024-02-21T12:48:11;99529.58;;;8.58;70.62
76337;BME280;65157;50.082;18.178;2024-02-21T12:50:36;99527.83;;;8.57;70.43
76337;BME280;65157;50.082;18.178;2024-02-21T12:53:02;99526.94;;;8.58;70.67
76337;BME280;65157;50.082;18.178;2024-02-21T12:55:29;99522.30;;;8.60;70.93
76337;BME280;65157;50.082;18.178;2024-02-21T12:57:54;99518.84;;;8.64;71.32
76337;BME280;65157;50.082;18.178;2024-02-21T13:00:20;99518.38;;;8.68;70.36
76337;BME280;65157;50.082;18.178;2024-02-21T13:02:46;99513.35;;;8.71;70.77